createdAt,value
2018-12-30T00:00:11.162Z,21.30
2018-12-30T00:05:39.129Z,21.20
2018-12-30T00:08:25.372Z,21.20
2018-12-30T00:11:09.576Z,21.10
2018-12-30T00:13:53.081Z,21.10
2018-12-30T00:16:36.675Z,21.00
2018-12-30T00:19:20.633Z,21.00
2018-12-30T00:22:03.703Z,20.90
2018-12-30T00:24:46.785Z,20.80
2018-12-30T00:27:29.996Z,20.80
2018-12-30T00:30:13.542Z,20.70
2018-12-30T00:32:58.054Z,20.70
2018-12-30T00:41:36.888Z,20.40
2018-12-30T00:44:19.756Z,20.30
2018-12-30T00:47:06.681Z,20.30
2018-12-30T00:49:49.497Z,20.30
2018-12-30T01:10:14.376Z,19.90
2018-12-30T01:18:47.849Z,19.80
2018-12-30T01:24:43.320Z,19.60
2018-12-30T01:27:28.873Z,19.60
2018-12-30T01:33:12.338Z,19.50
2018-12-30T03:09:04.463Z,18.70
2018-12-30T03:12:11.014Z,18.70
2018-12-30T03:15:02.809Z,18.60
2018-12-30T03:18:05.060Z,18.60
2018-12-30T03:20:23.858Z,18.60
2018-12-30T03:26:16.216Z,18.60
2018-12-30T03:32:57.288Z,18.60
2018-12-30T03:34:58.964Z,18.60
2018-12-30T03:38:05.455Z,18.60
2018-12-30T03:44:11.300Z,18.60
2018-12-30T04:01:18.702Z,18.50
2018-12-30T04:04:39.459Z,18.40
2018-12-30T04:13:07.220Z,18.40
2018-12-30T04:15:50.614Z,18.40
2018-12-30T04:18:38.398Z,18.30
2018-12-30T04:21:44.625Z,18.30
2018-12-30T04:24:33.891Z,18.30
2018-12-30T04:30:13.021Z,18.20
2018-12-30T04:33:01.134Z,18.10
2018-12-30T04:36:14.462Z,18.10
2018-12-30T04:38:42.084Z,18.20
2018-12-30T04:41:35.637Z,18.20
2018-12-30T04:44:20.412Z,18.20
2018-12-30T04:47:25.232Z,18.20
2018-12-30T04:53:12.428Z,18.00
2018-12-30T04:56:00.960Z,18.00
2018-12-30T04:58:43.677Z,17.90
2018-12-30T05:01:28.764Z,17.80
2018-12-30T05:07:24.259Z,17.70
2018-12-30T05:10:01.450Z,17.70
2018-12-30T05:15:41.359Z,17.60
2018-12-30T05:21:20.448Z,17.50
2018-12-30T05:25:19.962Z,17.40
2018-12-30T05:27:35.236Z,17.40
2018-12-30T05:30:14.983Z,17.40
2018-12-30T05:32:54.903Z,17.30
2018-12-30T05:39:33.497Z,17.20
2018-12-30T05:44:57.188Z,17.20
2018-12-30T06:05:59.883Z,17.00
2018-12-30T06:18:56.391Z,17.00
2018-12-30T06:22:14.426Z,17.00
2018-12-30T06:24:52.985Z,17.00
2018-12-30T06:49:10.671Z,16.70
2018-12-30T06:55:18.826Z,16.70
2018-12-30T07:03:56.681Z,16.60
2018-12-30T07:09:50.820Z,16.60
2018-12-30T07:18:57.505Z,16.60
2018-12-30T07:40:30.623Z,16.10
2018-12-30T07:44:56.759Z,16.10
2018-12-30T07:46:20.819Z,16.10
2018-12-30T07:49:04.126Z,16.10
2018-12-30T07:51:46.118Z,16.20
2018-12-30T07:54:41.259Z,16.20
2018-12-30T07:57:32.734Z,16.20
2018-12-30T08:09:05.863Z,16.40
2018-12-30T08:33:27.825Z,16.30
2018-12-30T08:49:26.395Z,16.40
2018-12-30T08:52:23.918Z,16.50
2018-12-30T09:13:25.921Z,16.50
2018-12-30T09:22:15.937Z,16.40
2018-12-30T09:25:35.862Z,16.40
2018-12-30T09:43:17.188Z,16.20
2018-12-30T09:55:10.810Z,16.20
2018-12-30T09:57:44.826Z,16.10
2018-12-30T10:00:28.906Z,16.10
2018-12-30T10:03:23.821Z,16.10
2018-12-30T10:06:16.033Z,16.10
2018-12-30T10:09:12.150Z,16.10
2018-12-30T10:12:22.356Z,16.10
2018-12-30T10:14:40.877Z,16.10
2018-12-30T10:18:08.518Z,16.10
2018-12-30T10:27:02.872Z,16.10
2018-12-30T10:32:43.907Z,16.10
2018-12-30T10:38:40.146Z,16.00
2018-12-30T10:44:48.739Z,16.00
2018-12-30T10:47:59.652Z,15.90
2018-12-30T10:51:03.912Z,15.90
2018-12-30T10:53:31.951Z,15.90
2018-12-30T10:56:20.094Z,15.80
2018-12-30T10:59:03.589Z,15.80
2018-12-30T11:01:49.463Z,15.80
2018-12-30T11:04:34.806Z,15.80
2018-12-30T11:07:17.907Z,15.80
2018-12-30T11:10:05.288Z,15.80
2018-12-30T11:12:48.851Z,15.70
2018-12-30T11:15:32.058Z,15.70
2018-12-30T11:18:15.718Z,15.60
2018-12-30T11:20:58.885Z,15.60
2018-12-30T11:23:33.483Z,15.50
2018-12-30T12:02:53.859Z,15.60
2018-12-30T13:36:15.938Z,15.90
2018-12-30T13:45:14.318Z,16.00
2018-12-30T13:51:38.285Z,16.20
2018-12-30T14:00:24.103Z,16.40
2018-12-30T14:06:01.735Z,16.60
2018-12-30T14:08:47.049Z,16.70
2018-12-30T14:14:26.296Z,16.90
2018-12-30T14:17:10.489Z,17.00
2018-12-30T14:19:54.098Z,17.20
2018-12-30T14:22:30.341Z,17.30
2018-12-30T14:25:21.636Z,17.40
2018-12-30T14:28:05.955Z,17.50
2018-12-30T14:30:55.292Z,17.60
2018-12-30T14:33:40.073Z,17.60
2018-12-30T14:36:23.482Z,17.60
2018-12-30T14:39:06.864Z,17.70
2018-12-30T14:41:50.479Z,17.70
2018-12-30T14:44:38.027Z,17.90
2018-12-30T14:47:21.003Z,18.00
2018-12-30T14:50:06.183Z,18.10
2018-12-30T14:52:49.080Z,18.20
2018-12-30T14:55:34.137Z,18.30
2018-12-30T14:58:40.564Z,18.30
2018-12-30T15:01:24.685Z,18.40
2018-12-30T15:04:08.195Z,18.50
2018-12-30T15:06:53.990Z,18.50
2018-12-30T15:09:37.474Z,18.60
2018-12-30T15:12:21.114Z,18.70
2018-12-30T15:15:03.995Z,18.80
2018-12-30T15:17:49.092Z,18.90
2018-12-30T15:20:32.248Z,19.00
2018-12-30T15:23:28.801Z,19.10
2018-12-30T15:26:30.982Z,19.20
2018-12-30T15:29:01.460Z,19.30
2018-12-30T15:32:03.961Z,19.40
2018-12-30T15:34:38.729Z,19.50
2018-12-30T15:49:44.909Z,19.80
2018-12-30T15:53:04.025Z,19.90
2018-12-30T15:59:04.456Z,20.00
2018-12-30T16:22:34.348Z,20.80
2018-12-30T16:28:13.520Z,20.80
2018-12-30T16:33:47.766Z,21.00
2018-12-30T16:42:22.115Z,21.30
2018-12-30T16:45:10.737Z,21.40
2018-12-30T16:47:53.783Z,21.50
2018-12-30T16:50:55.989Z,21.50
2018-12-30T16:53:26.805Z,21.50
2018-12-30T16:56:10.212Z,21.60
2018-12-30T16:59:02.428Z,21.60
2018-12-30T17:01:49.021Z,21.60
2018-12-30T17:04:32.556Z,21.60
2018-12-30T17:07:18.181Z,21.70
2018-12-30T17:10:02.491Z,21.80
2018-12-30T17:12:38.332Z,21.90
2018-12-30T17:15:25.132Z,22.10
2018-12-30T17:18:13.138Z,22.10
2018-12-30T17:20:57.690Z,22.10
2018-12-30T17:23:40.759Z,22.30
2018-12-30T17:26:23.972Z,22.40
2018-12-30T17:29:06.886Z,22.40
2018-12-30T17:31:50.804Z,22.40
2018-12-30T17:34:35.953Z,22.50
2018-12-30T17:37:26.495Z,22.50
2018-12-30T17:40:10.953Z,22.60
2018-12-30T17:51:56.829Z,22.80
2018-12-30T17:55:24.819Z,22.90
2018-12-30T18:03:40.959Z,23.00
2018-12-30T18:06:26.063Z,23.10
2018-12-30T18:09:10.221Z,23.30
2018-12-30T18:11:53.739Z,23.30
2018-12-30T18:14:36.872Z,23.50
2018-12-30T18:17:11.130Z,23.40
2018-12-30T18:23:09.472Z,23.60
2018-12-30T18:25:58.611Z,24.00
2018-12-30T18:28:36.849Z,24.40
2018-12-30T18:31:22.139Z,25.00
2018-12-30T18:34:08.939Z,25.60
2018-12-30T18:36:55.922Z,26.20
2018-12-30T18:39:40.281Z,26.40
2018-12-30T18:42:26.424Z,26.40
2018-12-30T18:45:22.673Z,26.10
2018-12-30T18:48:06.226Z,26.00
2018-12-30T18:50:50.564Z,26.00
2018-12-30T18:53:35.395Z,26.10
2018-12-30T18:56:18.271Z,26.20
2018-12-30T18:59:06.767Z,26.00
2018-12-30T19:01:50.542Z,25.90
2018-12-30T19:04:35.227Z,26.00
2018-12-30T19:07:24.075Z,26.00
2018-12-30T19:10:08.519Z,26.20
2018-12-30T19:12:51.949Z,26.40
2018-12-30T19:15:53.617Z,26.50
2018-12-30T19:18:36.876Z,26.60
2018-12-30T19:21:20.297Z,26.70
2018-12-30T19:24:03.493Z,26.80
2018-12-30T19:26:52.303Z,27.10
2018-12-30T19:29:35.911Z,26.90
2018-12-30T19:32:19.515Z,26.90
2018-12-30T19:35:02.881Z,27.30
2018-12-30T19:43:56.685Z,28.80
2018-12-30T19:56:21.876Z,28.90
2018-12-30T20:13:58.354Z,27.50
2018-12-30T20:17:19.990Z,28.50
2018-12-30T20:23:13.404Z,28.70
2018-12-30T20:28:57.527Z,28.90
2018-12-30T20:46:19.641Z,28.30
2018-12-30T20:47:02.545Z,28.70
2018-12-30T20:55:34.774Z,27.80
2018-12-30T21:01:58.899Z,27.30
2018-12-30T21:10:30.276Z,27.00
2018-12-30T21:13:14.033Z,26.90
2018-12-30T21:15:57.511Z,26.80
2018-12-30T21:18:42.034Z,26.60
2018-12-30T21:21:27.634Z,26.40
2018-12-30T21:24:32.290Z,26.50
2018-12-30T21:27:19.167Z,26.40
2018-12-30T21:30:15.700Z,26.40
2018-12-30T21:33:00.296Z,26.50
2018-12-30T21:38:38.038Z,26.60
2018-12-30T21:44:10.432Z,26.80
2018-12-30T21:46:54.292Z,26.90
2018-12-30T21:49:48.010Z,27.00
2018-12-30T21:52:34.074Z,27.20
2018-12-30T21:55:27.847Z,27.30
2018-12-30T21:58:11.836Z,27.10
2018-12-30T22:00:57.079Z,26.90
2018-12-30T22:04:00.552Z,27.00
2018-12-30T22:06:44.952Z,27.00
2018-12-30T22:09:19.681Z,26.90
2018-12-30T22:12:11.029Z,27.00
2018-12-30T22:14:54.433Z,27.10
2018-12-30T22:17:39.896Z,27.20
2018-12-30T22:20:26.232Z,27.30
2018-12-30T22:25:57.092Z,27.50
2018-12-30T22:28:40.091Z,27.60
2018-12-30T22:34:21.675Z,27.40
2018-12-30T22:37:04.989Z,27.00
2018-12-30T22:39:48.479Z,26.90
2018-12-30T22:42:32.924Z,26.50
2018-12-30T22:45:16.226Z,26.10
2018-12-30T22:48:01.175Z,26.00
2018-12-30T22:50:46.163Z,26.00
2018-12-30T22:56:18.572Z,25.40
2018-12-30T22:59:01.892Z,25.20
2018-12-30T23:01:47.348Z,25.00
2018-12-30T23:04:30.099Z,24.90
2018-12-30T23:07:13.237Z,24.90
2018-12-30T23:09:57.555Z,24.90
2018-12-30T23:12:31.440Z,24.80
2018-12-30T23:18:32.640Z,24.60
2018-12-30T23:21:18.149Z,24.50
2018-12-30T23:24:01.603Z,24.40
2018-12-30T23:26:45.040Z,24.30
2018-12-30T23:29:29.258Z,24.20
2018-12-30T23:32:13.283Z,24.20
2018-12-30T23:37:54.400Z,23.90
2018-12-30T23:40:39.940Z,23.70
2018-12-30T23:43:25.120Z,23.60
2018-12-30T23:46:08.934Z,23.50
2018-12-30T23:48:56.274Z,23.50
2018-12-30T23:51:40.060Z,23.40
2018-12-30T23:54:27.280Z,23.30
2018-12-30T23:57:12.203Z,23.20
2018-12-30T23:59:55.173Z,23.20
